Time;durP1;ratioP1;P1;durP2;ratioP2;P2;SDS_P1;SDS_P2;PMS_P1;PMS_P2;Temp;Humidity;BMP_temperature;BMP_pressure;BME280_temperature;BME280_humidity;BME280_pressure;Samples;Min_cycle;Max_cycle;Signal;HPM_P1;HPM_P2
2021/05/22 00:02:57;;;;;;;3.72;1.65;;;;;;;;;;6074941;23;20189;-91
2021/05/22 00:06:02;;;;;;;4.22;1.67;;;;;;;;;;6060077;23;20615;-90
2021/05/22 00:09:07;;;;;;;5.38;1.70;;;;;;;;;;6077265;23;20504;-89
2021/05/22 00:12:11;;;;;;;2.38;1.35;;;;;;;;;;6057528;23;20200;-88
2021/05/22 00:15:17;;;;;;;1.80;1.27;;;;;;;;;;6078160;23;20198;-89
2021/05/22 00:18:22;;;;;;;2.35;1.42;;;;;;;;;;6075116;23;20560;-88
2021/05/22 00:21:27;;;;;;;1.60;1.27;;;;;;;;;;6075318;23;20191;-89
2021/05/22 00:24:32;;;;;;;3.00;1.48;;;;;;;;;;6083112;23;20162;-88
2021/05/22 00:27:36;;;;;;;4.05;1.75;;;;;;;;;;6060243;23;20169;-88
2021/05/22 00:30:40;;;;;;;3.53;1.48;;;;;;;;;;6078433;23;20238;-86
2021/05/22 00:33:46;;;;;;;2.50;1.40;;;;;;;;;;6078493;23;20199;-89
2021/05/22 00:36:51;;;;;;;1.42;1.00;;;;;;;;;;6078231;23;20193;-89
2021/05/22 00:39:56;;;;;;;3.70;1.35;;;;;;;;;;6061042;23;20158;-90
2021/05/22 00:43:00;;;;;;;3.10;1.60;;;;;;;;;;6060098;23;20217;-89
2021/05/22 00:46:05;;;;;;;3.20;1.40;;;;;;;;;;6077945;23;20265;-88
2021/05/22 00:49:11;;;;;;;4.93;1.30;;;;;;;;;;6075051;23;20167;-87
2021/05/22 00:52:16;;;;;;;2.78;1.27;;;;;;;;;;6075914;23;20187;-88
2021/05/22 00:55:22;;;;;;;3.35;1.58;;;;;;;;;;6077402;23;20206;-89
2021/05/22 00:58:26;;;;;;;1.98;1.33;;;;;;;;;;6076886;23;20170;-90
2021/05/22 01:01:31;;;;;;;2.45;1.25;;;;;;;;;;6064414;23;20663;-90
2021/05/22 01:04:37;;;;;;;8.13;1.55;;;;;;;;;;6077812;23;20174;-89
2021/05/22 01:07:44;;;;;;;3.20;1.40;;;;;;;;;;6061832;23;20198;-88
2021/05/22 01:10:50;;;;;;;4.22;1.48;;;;;;;;;;6078045;23;20173;-89
2021/05/22 01:13:58;;;;;;;2.55;1.20;;;;;;;;;;6076944;23;20194;-90
2021/05/22 01:17:03;;;;;;;1.85;1.25;;;;;;;;;;6076076;23;20661;-89
2021/05/22 01:20:14;;;;;;;4.55;1.38;;;;;;;;;;6075430;23;20622;-90
2021/05/22 01:23:21;;;;;;;2.45;0.90;;;;;;;;;;6076759;23;20216;-90
2021/05/22 01:26:27;;;;;;;3.17;0.80;;;;;;;;;;6075455;23;20243;-89
2021/05/22 01:29:32;;;;;;;1.40;0.80;;;;;;;;;;6075024;23;20606;-90
2021/05/22 01:32:36;;;;;;;1.45;0.88;;;;;;;;;;6076205;23;20626;-89
2021/05/22 01:35:42;;;;;;;0.90;0.70;;;;;;;;;;6077494;23;20528;-89
2021/05/22 01:38:47;;;;;;;0.83;0.70;;;;;;;;;;6077395;23;20227;-90
2021/05/22 01:41:52;;;;;;;3.53;0.77;;;;;;;;;;6061417;23;20244;-90
2021/05/22 01:44:57;;;;;;;1.90;0.73;;;;;;;;;;6076942;23;20189;-88
2021/05/22 01:48:03;;;;;;;1.90;0.80;;;;;;;;;;6077761;23;20163;-88
2021/05/22 01:51:09;;;;;;;3.63;0.63;;;;;;;;;;6077670;23;20178;-89
2021/05/22 01:54:33;;;;;;;2.27;0.57;;;;;;;;;;6077980;23;20223;-90
2021/05/22 01:57:39;;;;;;;1.50;0.63;;;;;;;;;;6077139;23;20226;-91
2021/05/22 02:00:45;;;;;;;1.50;0.67;;;;;;;;;;6076160;23;20618;-89
2021/05/22 02:03:50;;;;;;;1.33;0.80;;;;;;;;;;6076919;23;20175;-90
2021/05/22 02:06:56;;;;;;;1.53;0.60;;;;;;;;;;6075668;23;20174;-89
2021/05/22 02:10:01;;;;;;;1.53;0.60;;;;;;;;;;6060077;23;20190;-90
2021/05/22 02:13:07;;;;;;;1.70;0.70;;;;;;;;;;6076555;23;20243;-89
2021/05/22 02:16:13;;;;;;;0.70;0.60;;;;;;;;;;6076770;23;20185;-90
2021/05/22 02:19:19;;;;;;;0.93;0.70;;;;;;;;;;6059485;23;20738;-90
2021/05/22 02:22:24;;;;;;;3.40;0.70;;;;;;;;;;6076827;23;20491;-90
2021/05/22 02:25:29;;;;;;;3.33;0.60;;;;;;;;;;6077202;23;20219;-91
2021/05/22 02:28:35;;;;;;;1.55;0.77;;;;;;;;;;6059239;23;20183;-89
2021/05/22 02:31:40;;;;;;;0.50;0.50;;;;;;;;;;6058635;23;20244;-89
2021/05/22 02:34:47;;;;;;;0.80;0.63;;;;;;;;;;6082871;23;20193;-92
2021/05/22 02:37:52;;;;;;;2.07;0.70;;;;;;;;;;6088225;23;20196;-89
2021/05/22 02:40:59;;;;;;;1.10;0.67;;;;;;;;;;6087904;23;20173;-90
2021/05/22 02:44:05;;;;;;;4.17;0.80;;;;;;;;;;6088018;23;20226;-90
2021/05/22 02:47:11;;;;;;;0.97;0.70;;;;;;;;;;6088550;23;20251;-90
2021/05/22 02:50:16;;;;;;;2.23;0.80;;;;;;;;;;6088098;23;20177;-90
2021/05/22 02:53:22;;;;;;;0.60;0.60;;;;;;;;;;6088137;23;20173;-89
2021/05/22 02:56:28;;;;;;;1.03;0.60;;;;;;;;;;6087446;23;20214;-89
2021/05/22 02:59:34;;;;;;;0.83;0.70;;;;;;;;;;6087570;23;20177;-90
2021/05/22 03:02:39;;;;;;;1.80;0.63;;;;;;;;;;6088763;23;20166;-91
2021/05/22 03:05:43;;;;;;;0.73;0.63;;;;;;;;;;6087476;23;20229;-90
2021/05/22 03:08:49;;;;;;;1.57;0.80;;;;;;;;;;6088466;23;20166;-89
2021/05/22 03:11:54;;;;;;;1.53;0.80;;;;;;;;;;6087041;23;20848;-90
2021/05/22 03:15:00;;;;;;;1.27;0.70;;;;;;;;;;6088057;23;20199;-89
2021/05/22 03:18:05;;;;;;;2.07;0.70;;;;;;;;;;6088910;23;20242;-90
2021/05/22 03:21:11;;;;;;;1.50;0.70;;;;;;;;;;6087962;23;20257;-90
2021/05/22 03:24:16;;;;;;;1.13;0.80;;;;;;;;;;6087649;23;20173;-90
2021/05/22 03:27:21;;;;;;;1.63;0.73;;;;;;;;;;6086658;23;20178;-89
2021/05/22 03:30:27;;;;;;;6.63;0.80;;;;;;;;;;6086682;23;20682;-89
2021/05/22 03:33:31;;;;;;;3.43;0.93;;;;;;;;;;6087128;23;20194;-89
2021/05/22 03:36:36;;;;;;;2.83;0.90;;;;;;;;;;6087583;23;20194;-89
2021/05/22 03:39:41;;;;;;;0.90;0.77;;;;;;;;;;6088075;23;20270;-90
2021/05/22 03:42:45;;;;;;;0.83;0.70;;;;;;;;;;6087684;23;20170;-90
2021/05/22 03:45:51;;;;;;;2.00;1.10;;;;;;;;;;6087459;23;20242;-90
2021/05/22 03:48:55;;;;;;;2.80;0.90;;;;;;;;;;6086379;23;20185;-90
2021/05/22 03:52:00;;;;;;;1.13;0.80;;;;;;;;;;6086950;23;20173;-90
2021/05/22 03:55:05;;;;;;;6.43;1.03;;;;;;;;;;6087018;23;20689;-90
2021/05/22 03:58:09;;;;;;;3.77;1.20;;;;;;;;;;6088268;23;20270;-91
2021/05/22 04:01:46;;;;;;;5.13;1.10;;;;;;;;;;6089413;23;20177;-90
2021/05/22 04:04:52;;;;;;;1.17;0.90;;;;;;;;;;6090695;23;20611;-89
2021/05/22 04:07:57;;;;;;;3.47;1.17;;;;;;;;;;6090292;23;20170;-91
2021/05/22 04:11:03;;;;;;;6.50;1.40;;;;;;;;;;6089746;23;20189;-91
2021/05/22 04:14:08;;;;;;;2.43;1.00;;;;;;;;;;6089542;23;20177;-90
2021/05/22 04:17:12;;;;;;;3.10;1.67;;;;;;;;;;6088071;23;20230;-90
2021/05/22 04:20:17;;;;;;;1.17;0.80;;;;;;;;;;6087324;23;20177;-89
2021/05/22 04:23:21;;;;;;;2.50;0.90;;;;;;;;;;6087453;23;20612;-90
2021/05/22 04:26:26;;;;;;;1.77;1.00;;;;;;;;;;6088207;23;20236;-90
2021/05/22 04:29:30;;;;;;;4.50;1.00;;;;;;;;;;6088185;23;20174;-90
2021/05/22 04:32:35;;;;;;;1.43;0.80;;;;;;;;;;6087929;23;20564;-89
2021/05/22 04:35:41;;;;;;;1.57;0.90;;;;;;;;;;6093402;23;20249;-90
2021/05/22 04:38:46;;;;;;;1.37;0.90;;;;;;;;;;6120844;23;20170;-89
2021/05/22 04:41:50;;;;;;;2.37;1.10;;;;;;;;;;6105254;23;20617;-90
2021/05/22 04:44:55;;;;;;;1.80;1.20;;;;;;;;;;6104832;23;20224;-90
2021/05/22 04:48:00;;;;;;;2.00;1.00;;;;;;;;;;6122259;23;20170;-90
2021/05/22 04:51:06;;;;;;;1.70;1.10;;;;;;;;;;6122412;23;20662;-90
2021/05/22 04:54:11;;;;;;;3.80;1.10;;;;;;;;;;6105940;23;20195;-89
2021/05/22 04:57:15;;;;;;;2.37;1.20;;;;;;;;;;6122171;23;20193;-90
2021/05/22 05:00:20;;;;;;;4.30;1.80;;;;;;;;;;6122473;23;20253;-89
2021/05/22 05:03:24;;;;;;;2.50;1.50;;;;;;;;;;6122154;23;20178;-89
2021/05/22 05:06:29;;;;;;;2.57;1.90;;;;;;;;;;6121305;23;20173;-91
2021/05/22 05:09:35;;;;;;;5.13;2.10;;;;;;;;;;6121261;23;20170;-90
2021/05/22 05:12:40;;;;;;;2.93;1.90;;;;;;;;;;6104706;23;20179;-90
2021/05/22 05:15:44;;;;;;;2.63;1.73;;;;;;;;;;6122484;23;20251;-91
2021/05/22 05:18:49;;;;;;;3.40;1.70;;;;;;;;;;6107028;23;20517;-92
2021/05/22 05:21:54;;;;;;;2.37;1.63;;;;;;;;;;6106403;23;20617;-91
2021/05/22 05:24:59;;;;;;;3.70;1.53;;;;;;;;;;6122941;23;20201;-90
2021/05/22 05:28:03;;;;;;;2.30;1.40;;;;;;;;;;6105379;23;20726;-90
2021/05/22 05:31:08;;;;;;;2.77;1.10;;;;;;;;;;6107117;23;20194;-90
2021/05/22 05:34:14;;;;;;;2.07;1.40;;;;;;;;;;6106422;23;20218;-89
2021/05/22 05:37:20;;;;;;;1.53;0.93;;;;;;;;;;6089266;23;20200;-90
2021/05/22 05:43:43;;;;;;;3.07;1.30;;;;;;;;;;6087808;23;20170;-91
2021/05/22 05:46:48;;;;;;;2.63;1.27;;;;;;;;;;6089899;23;20162;-91
2021/05/22 05:49:52;;;;;;;2.07;1.30;;;;;;;;;;6088644;23;20174;-89
2021/05/22 05:52:58;;;;;;;5.03;1.30;;;;;;;;;;6088442;23;20190;-90
2021/05/22 05:56:02;;;;;;;5.10;1.60;;;;;;;;;;6087558;23;20190;-90
2021/05/22 05:59:07;;;;;;;5.50;1.37;;;;;;;;;;6088215;23;20253;-90
2021/05/22 06:02:12;;;;;;;4.50;1.20;;;;;;;;;;6088496;23;20178;-90
2021/05/22 06:05:16;;;;;;;2.87;1.00;;;;;;;;;;6089314;23;20293;-90
2021/05/22 06:08:22;;;;;;;1.80;1.00;;;;;;;;;;6093422;23;20174;-89
2021/05/22 06:11:29;;;;;;;1.00;0.80;;;;;;;;;;6089733;23;20195;-90
2021/05/22 06:14:36;;;;;;;1.20;0.90;;;;;;;;;;6088246;23;20223;-89
2021/05/22 06:17:44;;;;;;;1.70;0.93;;;;;;;;;;6088208;23;20479;-89
2021/05/22 06:20:48;;;;;;;2.07;1.10;;;;;;;;;;6090313;23;20185;-89
2021/05/22 06:23:54;;;;;;;1.90;0.90;;;;;;;;;;6089546;23;20197;-90
2021/05/22 06:26:59;;;;;;;2.23;1.10;;;;;;;;;;6089810;23;20206;-91
2021/05/22 06:30:04;;;;;;;3.87;1.27;;;;;;;;;;6091576;23;20181;-89
2021/05/22 06:33:10;;;;;;;2.60;1.17;;;;;;;;;;6090293;23;20201;-90
2021/05/22 06:36:14;;;;;;;3.42;1.05;;;;;;;;;;6105617;23;20245;-90
2021/05/22 06:39:21;;;;;;;3.73;1.00;;;;;;;;;;6108180;23;20177;-90
2021/05/22 06:42:30;;;;;;;2.00;1.00;;;;;;;;;;6125858;23;20238;-90
2021/05/22 06:45:39;;;;;;;2.03;1.10;;;;;;;;;;6123967;23;20178;-91
2021/05/22 06:48:44;;;;;;;2.50;1.10;;;;;;;;;;6126987;23;20201;-89
2021/05/22 06:51:50;;;;;;;2.37;1.07;;;;;;;;;;6109291;23;20190;-91
2021/05/22 06:54:55;;;;;;;3.50;1.20;;;;;;;;;;6109380;23;20170;-89
2021/05/22 06:58:00;;;;;;;6.55;2.75;;;;;;;;;;6108468;23;20197;-90
2021/05/22 07:01:05;;;;;;;4.47;1.10;;;;;;;;;;6128713;23;20203;-90
2021/05/22 07:04:10;;;;;;;4.63;1.45;;;;;;;;;;6123210;23;20173;-87
2021/05/22 07:07:15;;;;;;;3.38;1.33;;;;;;;;;;6124456;23;20173;-89
2021/05/22 07:10:20;;;;;;;1.95;1.05;;;;;;;;;;6105934;23;20221;-88
2021/05/22 07:13:24;;;;;;;2.85;1.10;;;;;;;;;;6106572;23;20189;-91
2021/05/22 07:16:29;;;;;;;2.08;0.90;;;;;;;;;;6124617;23;20293;-88
2021/05/22 07:19:34;;;;;;;2.58;1.00;;;;;;;;;;6124926;23;20178;-89
2021/05/22 07:22:38;;;;;;;2.20;1.17;;;;;;;;;;6123830;23;20161;-90
2021/05/22 07:25:46;;;;;;;1.95;1.15;;;;;;;;;;6127845;23;20249;-90
2021/05/22 07:28:52;;;;;;;1.35;0.93;;;;;;;;;;6113204;23;20218;-90
2021/05/22 07:31:57;;;;;;;2.63;1.00;;;;;;;;;;6126390;23;20195;-90
2021/05/22 07:35:02;;;;;;;1.38;0.90;;;;;;;;;;6106583;23;20210;-89
2021/05/22 07:38:07;;;;;;;2.50;0.98;;;;;;;;;;6090325;23;20202;-89
2021/05/22 07:41:12;;;;;;;1.63;0.90;;;;;;;;;;6089131;23;20217;-89
2021/05/22 07:44:17;;;;;;;1.77;1.08;;;;;;;;;;6089871;23;20266;-90
2021/05/22 07:47:22;;;;;;;5.05;1.48;;;;;;;;;;6090407;23;20186;-89
2021/05/22 07:50:27;;;;;;;1.60;1.00;;;;;;;;;;6091547;23;20593;-89
2021/05/22 07:53:32;;;;;;;4.65;1.40;;;;;;;;;;6093072;23;20229;-89
2021/05/22 07:56:37;;;;;;;3.88;1.00;;;;;;;;;;6093628;23;20497;-91
2021/05/22 07:59:42;;;;;;;3.08;1.05;;;;;;;;;;6091631;23;20177;-89
2021/05/22 08:02:46;;;;;;;2.45;1.00;;;;;;;;;;6090869;23;20194;-88
2021/05/22 08:05:51;;;;;;;2.28;1.15;;;;;;;;;;6091009;23;20173;-89
2021/05/22 08:08:56;;;;;;;2.05;1.10;;;;;;;;;;6089262;23;20170;-89
2021/05/22 08:12:03;;;;;;;1.92;1.10;;;;;;;;;;6087522;23;20262;-86
2021/05/22 08:15:08;;;;;;;1.45;1.00;;;;;;;;;;6091770;23;20178;-89
2021/05/22 08:18:13;;;;;;;2.72;1.10;;;;;;;;;;6091138;23;20221;-89
2021/05/22 08:21:22;;;;;;;1.55;1.00;;;;;;;;;;6091128;23;20174;-87
2021/05/22 08:24:27;;;;;;;1.77;0.95;;;;;;;;;;6092227;23;20170;-90
2021/05/22 08:27:33;;;;;;;1.38;0.82;;;;;;;;;;6091635;23;20629;-91
2021/05/22 08:30:37;;;;;;;2.72;0.90;;;;;;;;;;6091589;23;20173;-89
2021/05/22 08:33:42;;;;;;;1.08;0.63;;;;;;;;;;6091178;23;20641;-89
2021/05/22 08:36:47;;;;;;;5.88;0.82;;;;;;;;;;6091621;23;20232;-91
2021/05/22 08:39:52;;;;;;;7.07;1.00;;;;;;;;;;6090435;23;20871;-88
2021/05/22 08:42:57;;;;;;;2.80;0.90;;;;;;;;;;6091182;23;20177;-87
2021/05/22 08:46:03;;;;;;;1.85;0.80;;;;;;;;;;6090170;23;20174;-88
2021/05/22 08:49:11;;;;;;;3.80;0.88;;;;;;;;;;6093036;23;20177;-89
2021/05/22 08:52:17;;;;;;;2.13;0.65;;;;;;;;;;6089541;23;20173;-88
2021/05/22 08:55:22;;;;;;;1.80;0.90;;;;;;;;;;6090847;23;20177;-88
2021/05/22 08:58:28;;;;;;;4.25;1.10;;;;;;;;;;6095181;23;20197;-90
2021/05/22 09:01:33;;;;;;;1.50;0.70;;;;;;;;;;6090224;23;20181;-88
2021/05/22 09:04:52;;;;;;;2.67;0.90;;;;;;;;;;6090678;23;20233;-89
2021/05/22 09:07:57;;;;;;;2.28;0.80;;;;;;;;;;6090535;23;20187;-89
2021/05/22 09:11:02;;;;;;;4.00;0.60;;;;;;;;;;6090325;23;20202;-91
2021/05/22 09:14:09;;;;;;;1.88;0.82;;;;;;;;;;6089491;23;20189;-87
2021/05/22 09:17:14;;;;;;;1.73;0.80;;;;;;;;;;6088297;23;20263;-88
2021/05/22 09:20:23;;;;;;;1.77;0.68;;;;;;;;;;6090114;23;20186;-88
2021/05/22 09:23:29;;;;;;;11.40;1.83;;;;;;;;;;6090978;23;20231;-89
2021/05/22 09:26:34;;;;;;;2.85;1.20;;;;;;;;;;6092170;23;20198;-88
2021/05/22 09:29:44;;;;;;;5.47;1.83;;;;;;;;;;6091667;23;20198;-90
2021/05/22 09:32:50;;;;;;;3.50;1.23;;;;;;;;;;6090173;23;20194;-89
2021/05/22 09:35:58;;;;;;;4.38;1.33;;;;;;;;;;6099465;23;20176;-90
2021/05/22 09:39:04;;;;;;;6.93;1.10;;;;;;;;;;6123390;23;20218;-88
2021/05/22 09:42:09;;;;;;;6.88;1.02;;;;;;;;;;6123612;23;20186;-88
2021/05/22 09:45:25;;;;;;;5.15;0.95;;;;;;;;;;6106351;23;20232;-87
2021/05/22 09:48:36;;;;;;;2.13;0.80;;;;;;;;;;6124075;23;20250;-88
2021/05/22 09:51:55;;;;;;;2.85;0.70;;;;;;;;;;6105659;23;20224;-88
2021/05/22 09:55:01;;;;;;;1.95;0.75;;;;;;;;;;6125410;23;20222;-91
2021/05/22 09:58:06;;;;;;;3.05;0.73;;;;;;;;;;6107633;23;20264;-88
2021/05/22 10:05:11;;;;;;;2.08;0.98;;;;;;;;;;6111176;23;20177;-88
2021/05/22 10:08:19;;;;;;;2.13;0.80;;;;;;;;;;6113784;23;20214;-89
2021/05/22 10:11:24;;;;;;;5.60;1.20;;;;;;;;;;6111900;23;20202;-87
2021/05/22 10:14:31;;;;;;;6.32;1.60;;;;;;;;;;6125031;23;20313;-87
2021/05/22 10:17:37;;;;;;;4.03;0.77;;;;;;;;;;6126642;23;20244;-87
2021/05/22 10:20:42;;;;;;;5.32;1.05;;;;;;;;;;6109398;23;20502;-87
2021/05/22 10:23:47;;;;;;;3.88;1.00;;;;;;;;;;6125271;23;20222;-88
2021/05/22 10:26:52;;;;;;;1.92;0.73;;;;;;;;;;6108329;23;20174;-87
2021/05/22 10:29:57;;;;;;;4.85;1.30;;;;;;;;;;6124002;23;20182;-88
2021/05/22 10:33:03;;;;;;;3.72;0.90;;;;;;;;;;6124344;23;20247;-88
2021/05/22 10:36:08;;;;;;;3.92;0.95;;;;;;;;;;6105831;23;20201;-88
2021/05/22 10:39:32;;;;;;;5.68;0.80;;;;;;;;;;6108327;23;20654;-88
2021/05/22 10:42:51;;;;;;;8.25;1.10;;;;;;;;;;6107654;23;20533;-90
2021/05/22 10:46:00;;;;;;;4.90;1.30;;;;;;;;;;6107672;23;20179;-89
2021/05/22 10:49:07;;;;;;;3.72;0.70;;;;;;;;;;6108137;23;20221;-88
2021/05/22 10:52:20;;;;;;;6.15;0.98;;;;;;;;;;6106939;23;20233;-88
2021/05/22 10:55:35;;;;;;;4.20;0.80;;;;;;;;;;6125637;23;20246;-89
2021/05/22 10:58:41;;;;;;;6.50;1.40;;;;;;;;;;6124582;23;20525;-89
2021/05/22 11:01:47;;;;;;;1.98;0.80;;;;;;;;;;6106079;23;20169;-87
2021/05/22 11:04:55;;;;;;;3.88;0.77;;;;;;;;;;6127650;23;20253;-87
2021/05/22 11:08:15;;;;;;;8.60;1.00;;;;;;;;;;6128506;23;20174;-86
2021/05/22 11:11:34;;;;;;;5.43;1.00;;;;;;;;;;6113304;23;20213;-90
2021/05/22 11:14:52;;;;;;;5.88;0.88;;;;;;;;;;6107258;23;20177;-92
2021/05/22 11:17:56;;;;;;;4.65;0.80;;;;;;;;;;6127366;23;20376;-91
2021/05/22 11:21:21;;;;;;;3.75;0.80;;;;;;;;;;6109805;23;20169;-88
2021/05/22 11:24:26;;;;;;;4.38;0.75;;;;;;;;;;6112712;23;20194;-86
2021/05/22 11:27:46;;;;;;;2.40;0.70;;;;;;;;;;6131591;23;20165;-90
2021/05/22 11:31:04;;;;;;;2.17;0.80;;;;;;;;;;6109907;23;20211;-88
2021/05/22 11:34:28;;;;;;;6.55;1.15;;;;;;;;;;6113601;23;20169;-90
2021/05/22 11:37:36;;;;;;;3.67;1.00;;;;;;;;;;6096348;23;20221;-87
2021/05/22 11:40:50;;;;;;;3.78;0.80;;;;;;;;;;6093195;23;20222;-89
2021/05/22 11:44:04;;;;;;;3.88;1.00;;;;;;;;;;6092679;23;20169;-88
2021/05/22 11:47:09;;;;;;;6.90;1.50;;;;;;;;;;6091468;23;20549;-89
2021/05/22 11:50:23;;;;;;;6.00;1.30;;;;;;;;;;6091268;23;20254;-88
2021/05/22 11:53:30;;;;;;;3.40;1.17;;;;;;;;;;6090708;23;20194;-87
2021/05/22 11:56:36;;;;;;;4.65;1.05;;;;;;;;;;6090631;23;20169;-88
2021/05/22 11:59:42;;;;;;;3.45;1.30;;;;;;;;;;6090433;23;20173;-87
2021/05/22 12:02:47;;;;;;;1.98;0.60;;;;;;;;;;6091809;23;20186;-87
2021/05/22 12:05:52;;;;;;;5.55;0.90;;;;;;;;;;6089826;23;20198;-89
2021/05/22 12:09:02;;;;;;;2.00;0.60;;;;;;;;;;6092113;23;20187;-88
2021/05/22 12:12:09;;;;;;;4.55;0.90;;;;;;;;;;6090126;23;20226;-90
2021/05/22 12:15:22;;;;;;;2.28;0.70;;;;;;;;;;6090412;23;20165;-88
2021/05/22 12:18:28;;;;;;;2.25;0.80;;;;;;;;;;6093873;23;20213;-91
2021/05/22 12:21:33;;;;;;;1.35;0.50;;;;;;;;;;6092641;23;20251;-89
2021/05/22 12:24:41;;;;;;;2.42;0.90;;;;;;;;;;6092949;23;20206;-89
2021/05/22 12:27:46;;;;;;;2.65;0.80;;;;;;;;;;6092284;23;20199;-88
2021/05/22 12:30:59;;;;;;;2.97;0.93;;;;;;;;;;6091591;23;20225;-90
2021/05/22 12:34:06;;;;;;;2.05;0.70;;;;;;;;;;6089621;23;20173;-89
2021/05/22 12:37:11;;;;;;;5.20;0.80;;;;;;;;;;6091364;23;20201;-87
2021/05/22 12:40:18;;;;;;;4.88;1.00;;;;;;;;;;6094217;23;20199;-90
2021/05/22 12:43:23;;;;;;;2.92;0.90;;;;;;;;;;6089855;23;20181;-90
2021/05/22 12:46:29;;;;;;;3.20;0.70;;;;;;;;;;6097167;23;20174;-88
2021/05/22 12:49:34;;;;;;;4.70;0.70;;;;;;;;;;6094595;23;20166;-89
2021/05/22 12:52:49;;;;;;;1.30;0.55;;;;;;;;;;6090564;23;20242;-89
2021/05/22 12:56:04;;;;;;;1.48;0.63;;;;;;;;;;6096954;23;20185;-88
2021/05/22 12:59:13;;;;;;;2.78;0.63;;;;;;;;;;6087354;23;20657;-87
2021/05/22 13:02:19;;;;;;;4.50;0.80;;;;;;;;;;6095093;23;20565;-89
2021/05/22 13:05:25;;;;;;;4.78;0.68;;;;;;;;;;6096680;23;20201;-90
2021/05/22 13:08:29;;;;;;;2.25;0.60;;;;;;;;;;6088732;23;20633;-88
2021/05/22 13:11:35;;;;;;;3.50;0.70;;;;;;;;;;6089003;23;20661;-87
2021/05/22 13:14:44;;;;;;;3.13;0.82;;;;;;;;;;6087978;23;20177;-89
2021/05/22 13:17:49;;;;;;;5.63;0.73;;;;;;;;;;6087754;23;20221;-88
2021/05/22 13:20:54;;;;;;;6.72;0.80;;;;;;;;;;6088348;23;20500;-91
2021/05/22 13:24:08;;;;;;;3.22;0.95;;;;;;;;;;6086758;23;20246;-88
2021/05/22 13:27:15;;;;;;;2.55;0.73;;;;;;;;;;6088793;23;20197;-90
2021/05/22 13:30:22;;;;;;;3.35;0.80;;;;;;;;;;6092344;23;20173;-87
2021/05/22 13:33:49;;;;;;;2.22;0.80;;;;;;;;;;6093626;23;20173;-87
2021/05/22 13:40:35;;;;;;;3.00;0.60;;;;;;;;;;6091494;23;20181;-88
2021/05/22 13:43:42;;;;;;;3.22;0.90;;;;;;;;;;6095847;23;20228;-90
2021/05/22 13:46:49;;;;;;;1.13;0.80;;;;;;;;;;6091549;23;20197;-90
2021/05/22 13:49:53;;;;;;;2.38;0.80;;;;;;;;;;6088070;23;20635;-88
2021/05/22 13:52:58;;;;;;;1.58;0.60;;;;;;;;;;6087729;23;20239;-90
2021/05/22 13:56:03;;;;;;;2.85;1.00;;;;;;;;;;6088921;23;20174;-89
2021/05/22 13:59:09;;;;;;;1.50;0.68;;;;;;;;;;6088436;23;20198;-90
2021/05/22 14:02:13;;;;;;;3.05;0.90;;;;;;;;;;6087415;23;20249;-87
2021/05/22 14:05:18;;;;;;;1.70;0.73;;;;;;;;;;6090262;23;20222;-89
2021/05/22 14:08:23;;;;;;;2.08;0.68;;;;;;;;;;6089644;23;20502;-89
2021/05/22 14:11:28;;;;;;;3.25;0.63;;;;;;;;;;6089490;23;20207;-89
2021/05/22 14:14:33;;;;;;;3.03;0.60;;;;;;;;;;6090332;23;20170;-88
2021/05/22 14:17:38;;;;;;;2.35;0.65;;;;;;;;;;6092103;23;20263;-91
2021/05/22 14:20:44;;;;;;;1.65;0.60;;;;;;;;;;6091282;23;20233;-90
2021/05/22 14:23:48;;;;;;;0.57;0.50;;;;;;;;;;6089241;23;20194;-90
2021/05/22 14:26:55;;;;;;;2.10;0.60;;;;;;;;;;6089924;23;20472;-87
2021/05/22 14:30:01;;;;;;;2.35;0.80;;;;;;;;;;6090569;23;20185;-89
2021/05/22 14:33:06;;;;;;;2.13;0.68;;;;;;;;;;6088037;23;20306;-89
2021/05/22 14:36:11;;;;;;;3.78;1.17;;;;;;;;;;6102404;23;20213;-88
2021/05/22 14:39:20;;;;;;;3.35;0.80;;;;;;;;;;6108681;23;20193;-89
2021/05/22 14:42:24;;;;;;;3.78;0.57;;;;;;;;;;6106903;23;20169;-89
2021/05/22 14:45:33;;;;;;;2.33;0.70;;;;;;;;;;6121776;23;20174;-88
2021/05/22 14:48:45;;;;;;;2.33;0.70;;;;;;;;;;6105179;23;20253;-90
2021/05/22 14:51:50;;;;;;;1.73;0.65;;;;;;;;;;6104946;23;20214;-88
2021/05/22 14:54:55;;;;;;;1.83;0.63;;;;;;;;;;6121807;23;20178;-89
2021/05/22 14:58:00;;;;;;;1.58;0.70;;;;;;;;;;6105242;23;20202;-88
2021/05/22 15:01:05;;;;;;;2.08;0.60;;;;;;;;;;6123536;23;20303;-88
2021/05/22 15:04:10;;;;;;;1.75;0.70;;;;;;;;;;6104405;23;20232;-88
2021/05/22 15:07:14;;;;;;;1.67;0.77;;;;;;;;;;6104221;23;20233;-89
2021/05/22 15:10:30;;;;;;;2.97;1.08;;;;;;;;;;6104852;23;20506;-87
2021/05/22 15:13:38;;;;;;;1.83;0.70;;;;;;;;;;6107585;23;20182;-90
2021/05/22 15:16:43;;;;;;;2.08;0.82;;;;;;;;;;6122124;23;20169;-87
2021/05/22 15:19:48;;;;;;;3.40;1.05;;;;;;;;;;6106046;23;20178;-88
2021/05/22 15:22:53;;;;;;;3.72;1.05;;;;;;;;;;6130302;23;20178;-89
2021/05/22 15:25:59;;;;;;;2.83;1.10;;;;;;;;;;6121349;23;20179;-90
2021/05/22 15:29:04;;;;;;;2.78;0.90;;;;;;;;;;6104560;23;20519;-89
2021/05/22 15:32:15;;;;;;;0.60;0.60;;;;;;;;;;6121629;23;20174;-88
2021/05/22 15:35:20;;;;;;;1.73;0.80;;;;;;;;;;6106714;23;20213;-88
2021/05/22 15:38:24;;;;;;;4.63;0.80;;;;;;;;;;6123470;23;20214;-89
2021/05/22 15:41:29;;;;;;;5.13;1.20;;;;;;;;;;6122063;23;20168;-88
2021/05/22 15:44:34;;;;;;;2.90;0.90;;;;;;;;;;6106974;23;20210;-88
2021/05/22 15:55:29;;;;;;;4.65;1.42;;;;;;;;;;6076861;23;20191;-88
2021/05/22 15:58:28;;;;;;;2.88;0.80;;;;;;;;;;6067150;23;20240;-91
2021/05/22 16:01:40;;;;;;;3.00;1.00;;;;;;;;;;6107403;23;20210;-87
2021/05/22 16:04:48;;;;;;;2.55;0.80;;;;;;;;;;6105307;23;20184;-89
2021/05/22 16:07:54;;;;;;;5.75;0.80;;;;;;;;;;6121036;23;20685;-87
2021/05/22 16:10:58;;;;;;;3.67;0.80;;;;;;;;;;6107902;23;20617;-89
2021/05/22 16:14:03;;;;;;;4.32;0.90;;;;;;;;;;6103339;23;20177;-90
2021/05/22 16:17:08;;;;;;;4.10;0.90;;;;;;;;;;6119781;23;20177;-88
2021/05/22 16:20:14;;;;;;;7.38;1.00;;;;;;;;;;6103156;23;20194;-91
2021/05/22 16:23:19;;;;;;;2.17;0.90;;;;;;;;;;6120082;23;20269;-90
2021/05/22 16:26:23;;;;;;;3.72;1.15;;;;;;;;;;6120950;23;20233;-91
2021/05/22 16:29:28;;;;;;;3.08;1.10;;;;;;;;;;6103707;23;20231;-90
2021/05/22 16:32:32;;;;;;;3.63;1.00;;;;;;;;;;6118435;23;20247;-88
2021/05/22 16:35:38;;;;;;;3.17;0.90;;;;;;;;;;6120542;23;20261;-89
2021/05/22 16:38:42;;;;;;;5.13;1.20;;;;;;;;;;6102988;23;20234;-89
2021/05/22 16:41:47;;;;;;;2.10;1.00;;;;;;;;;;6104877;23;20194;-90
2021/05/22 16:44:51;;;;;;;2.13;0.75;;;;;;;;;;6119816;23;20177;-87
2021/05/22 16:47:56;;;;;;;3.35;1.10;;;;;;;;;;6103622;23;20298;-87
2021/05/22 16:51:02;;;;;;;4.90;0.77;;;;;;;;;;6102906;23;20650;-91
2021/05/22 16:54:07;;;;;;;2.55;1.45;;;;;;;;;;6121003;23;20248;-89
2021/05/22 16:57:11;;;;;;;1.40;0.80;;;;;;;;;;6103226;23;20519;-88
2021/05/22 17:00:18;;;;;;;2.03;0.98;;;;;;;;;;6103423;23;20185;-90
2021/05/22 17:03:22;;;;;;;1.88;0.70;;;;;;;;;;6105683;23;20168;-89
2021/05/22 17:06:28;;;;;;;4.28;1.00;;;;;;;;;;6105326;23;20322;-88
2021/05/22 17:09:33;;;;;;;4.68;1.50;;;;;;;;;;6120780;23;20191;-91
2021/05/22 17:12:38;;;;;;;2.80;0.95;;;;;;;;;;6120204;23;20177;-89
2021/05/22 17:15:43;;;;;;;3.15;0.90;;;;;;;;;;6104425;23;20170;-87
2021/05/22 17:18:47;;;;;;;4.38;0.80;;;;;;;;;;6103415;23;20196;-89
2021/05/22 17:21:53;;;;;;;4.35;1.40;;;;;;;;;;6103170;23;20245;-90
2021/05/22 17:24:58;;;;;;;3.75;0.80;;;;;;;;;;6120524;23;20170;-90
2021/05/22 17:28:03;;;;;;;2.33;0.90;;;;;;;;;;6121038;23;20210;-90
2021/05/22 17:31:07;;;;;;;2.80;1.10;;;;;;;;;;6104403;23;20170;-89
2021/05/22 17:34:12;;;;;;;3.53;0.82;;;;;;;;;;6105917;23;20224;-89
2021/05/22 17:37:21;;;;;;;2.30;0.90;;;;;;;;;;6088325;23;20648;-88
2021/05/22 17:40:26;;;;;;;2.22;0.82;;;;;;;;;;6085857;23;20494;-87
2021/05/22 17:43:31;;;;;;;6.03;0.85;;;;;;;;;;6086975;23;20185;-89
2021/05/22 17:46:35;;;;;;;2.42;1.08;;;;;;;;;;6087368;23;20169;-89
2021/05/22 17:49:41;;;;;;;2.03;0.90;;;;;;;;;;6087286;23;20649;-88
2021/05/22 17:52:47;;;;;;;3.92;1.00;;;;;;;;;;6086950;23;20198;-88
2021/05/22 17:55:52;;;;;;;3.38;0.95;;;;;;;;;;6089087;23;20178;-89
2021/05/22 17:58:57;;;;;;;4.05;1.40;;;;;;;;;;6088093;23;20226;-90
2021/05/22 18:02:02;;;;;;;6.75;1.40;;;;;;;;;;6087224;23;20174;-89
2021/05/22 18:05:08;;;;;;;2.97;0.88;;;;;;;;;;6088338;23;20326;-89
2021/05/22 18:08:15;;;;;;;7.07;1.70;;;;;;;;;;6088543;23;20230;-89
2021/05/22 18:11:19;;;;;;;8.88;1.38;;;;;;;;;;6086718;23;20195;-87
2021/05/22 18:14:24;;;;;;;3.88;1.27;;;;;;;;;;6086929;23;20166;-89
2021/05/22 18:17:28;;;;;;;3.15;0.88;;;;;;;;;;6089579;23;20186;-88
2021/05/22 18:20:33;;;;;;;3.42;1.20;;;;;;;;;;6088834;23;20225;-87
2021/05/22 18:23:38;;;;;;;5.75;1.48;;;;;;;;;;6089645;23;20225;-89
2021/05/22 18:26:43;;;;;;;1.80;0.90;;;;;;;;;;6089071;23;20173;-88
2021/05/22 18:29:49;;;;;;;2.33;1.00;;;;;;;;;;6089098;23;20297;-88
2021/05/22 18:32:53;;;;;;;4.28;0.90;;;;;;;;;;6088467;23;20262;-88
2021/05/22 18:35:58;;;;;;;2.63;1.45;;;;;;;;;;6099251;23;20197;-88
2021/05/22 18:39:04;;;;;;;4.85;1.40;;;;;;;;;;6105603;23;20237;-89
2021/05/22 18:42:09;;;;;;;6.10;2.78;;;;;;;;;;6110743;23;20173;-90
2021/05/22 18:45:15;;;;;;;8.82;2.60;;;;;;;;;;6110313;23;20237;-90
2021/05/22 18:48:20;;;;;;;6.38;2.20;;;;;;;;;;6110990;23;20247;-88
2021/05/22 18:51:25;;;;;;;6.93;2.28;;;;;;;;;;6127305;23;20689;-89
2021/05/22 18:54:31;;;;;;;6.10;2.45;;;;;;;;;;6125312;23;20179;-88
2021/05/22 18:57:37;;;;;;;8.93;2.22;;;;;;;;;;6123879;23;20191;-88